Inicio METAR Ruta Wind Satelite

Informe Meteorológico

Fecha: 2021/09/21 15:40:29 Local
2021.09.21 20:40 UTC


Operación:
SKIB 212000Z 11007KT 9999 VCSH SCT020TCU SCT100 25/22 Q1016 RMK TCUVCSH/NW A3001 =